Fyffe, Alabama
Current Conditions -  °F | °C
As of 9:15 AM on Thursday 18 Dec 2014 (Local Time) from K4A9 Reporting Station
Overcast Overcast  
Wind Chill: 37°   Ceiling: 10000
Heat Index: 37°   Visibility: 10mi
Dew Point: 28°   Wind: 0mph
Humidity: 70%   Direction: NA
Pressure: 30.21"   Gusts: NA
Location:  34.45°N, 85.9°W
Report Text: K4A9 181515Z AUTO 00000KT 10SM SCT055 OVC100 03/M02 A3021 RMK AO2
Loading
Personal Weather Stations






























Interactive Weather Map New forecast layout! Learn more

10-Day Weather Forecast

Advertisements
Track Severe Weather on mobile